sensor_id;sensor_type;location;lat;lon;timestamp;P1;durP1;ratioP1;P2;durP2;ratioP2
56893;SDS011;43392;50.078;13.704;2022-07-19T00:02:07;5.03;;;2.25;;
56893;SDS011;43392;50.078;13.704;2022-07-19T00:04:34;7.60;;;2.20;;
56893;SDS011;43392;50.078;13.704;2022-07-19T00:07:01;6.43;;;2.10;;
56893;SDS011;43392;50.078;13.704;2022-07-19T00:09:28;6.28;;;2.13;;
56893;SDS011;43392;50.078;13.704;2022-07-19T00:11:57;5.25;;;2.38;;
56893;SDS011;43392;50.078;13.704;2022-07-19T00:14:23;4.80;;;2.15;;
56893;SDS011;43392;50.078;13.704;2022-07-19T00:16:50;4.45;;;2.00;;
56893;SDS011;43392;50.078;13.704;2022-07-19T00:19:17;4.68;;;1.90;;
56893;SDS011;43392;50.078;13.704;2022-07-19T00:21:44;4.63;;;2.10;;
56893;SDS011;43392;50.078;13.704;2022-07-19T00:24:11;5.50;;;2.40;;
56893;SDS011;43392;50.078;13.704;2022-07-19T00:26:38;5.57;;;2.10;;
56893;SDS011;43392;50.078;13.704;2022-07-19T00:29:06;6.90;;;2.33;;
56893;SDS011;43392;50.078;13.704;2022-07-19T00:31:32;5.32;;;2.22;;
56893;SDS011;43392;50.078;13.704;2022-07-19T00:33:59;7.15;;;2.75;;
56893;SDS011;43392;50.078;13.704;2022-07-19T00:36:25;7.53;;;2.30;;
56893;SDS011;43392;50.078;13.704;2022-07-19T00:38:52;7.53;;;2.30;;
56893;SDS011;43392;50.078;13.704;2022-07-19T00:41:19;4.38;;;2.05;;
56893;SDS011;43392;50.078;13.704;2022-07-19T00:43:45;4.82;;;2.30;;
56893;SDS011;43392;50.078;13.704;2022-07-19T00:46:13;6.22;;;2.13;;
56893;SDS011;43392;50.078;13.704;2022-07-19T00:48:41;4.75;;;1.80;;
56893;SDS011;43392;50.078;13.704;2022-07-19T00:51:08;7.07;;;2.20;;
56893;SDS011;43392;50.078;13.704;2022-07-19T00:53:35;5.97;;;2.15;;
56893;SDS011;43392;50.078;13.704;2022-07-19T00:56:03;6.57;;;2.08;;
56893;SDS011;43392;50.078;13.704;2022-07-19T00:58:30;7.47;;;2.42;;
56893;SDS011;43392;50.078;13.704;2022-07-19T01:00:57;4.43;;;2.13;;
56893;SDS011;43392;50.078;13.704;2022-07-19T01:03:26;6.13;;;2.03;;
56893;SDS011;43392;50.078;13.704;2022-07-19T01:05:53;7.45;;;2.30;;
56893;SDS011;43392;50.078;13.704;2022-07-19T01:08:20;5.78;;;2.13;;
56893;SDS011;43392;50.078;13.704;2022-07-19T01:10:47;4.35;;;1.88;;
56893;SDS011;43392;50.078;13.704;2022-07-19T01:13:14;4.32;;;1.90;;
56893;SDS011;43392;50.078;13.704;2022-07-19T01:15:41;6.45;;;2.00;;
56893;SDS011;43392;50.078;13.704;2022-07-19T01:18:08;4.57;;;1.60;;
56893;SDS011;43392;50.078;13.704;2022-07-19T01:20:37;4.65;;;1.77;;
56893;SDS011;43392;50.078;13.704;2022-07-19T01:23:05;4.13;;;2.00;;
56893;SDS011;43392;50.078;13.704;2022-07-19T01:25:32;5.13;;;1.77;;
56893;SDS011;43392;50.078;13.704;2022-07-19T01:28:02;6.53;;;2.30;;
56893;SDS011;43392;50.078;13.704;2022-07-19T01:30:30;7.83;;;2.70;;
56893;SDS011;43392;50.078;13.704;2022-07-19T01:32:57;9.10;;;3.10;;
56893;SDS011;43392;50.078;13.704;2022-07-19T01:35:25;7.45;;;2.88;;
56893;SDS011;43392;50.078;13.704;2022-07-19T01:37:51;6.32;;;2.60;;
56893;SDS011;43392;50.078;13.704;2022-07-19T01:40:20;3.85;;;2.03;;
56893;SDS011;43392;50.078;13.704;2022-07-19T01:42:47;5.43;;;2.15;;
56893;SDS011;43392;50.078;13.704;2022-07-19T01:45:15;2.90;;;1.83;;
56893;SDS011;43392;50.078;13.704;2022-07-19T01:47:42;6.15;;;1.95;;
56893;SDS011;43392;50.078;13.704;2022-07-19T01:50:10;5.75;;;2.10;;
56893;SDS011;43392;50.078;13.704;2022-07-19T01:52:39;3.58;;;1.88;;
56893;SDS011;43392;50.078;13.704;2022-07-19T01:55:06;6.18;;;1.85;;
56893;SDS011;43392;50.078;13.704;2022-07-19T01:57:35;3.78;;;1.90;;
56893;SDS011;43392;50.078;13.704;2022-07-19T02:00:02;3.70;;;1.90;;
56893;SDS011;43392;50.078;13.704;2022-07-19T02:02:33;5.85;;;2.33;;
56893;SDS011;43392;50.078;13.704;2022-07-19T02:05:00;7.53;;;3.13;;
56893;SDS011;43392;50.078;13.704;2022-07-19T02:07:26;7.57;;;3.28;;
56893;SDS011;43392;50.078;13.704;2022-07-19T02:09:53;8.43;;;3.08;;
56893;SDS011;43392;50.078;13.704;2022-07-19T02:12:22;6.80;;;2.90;;
56893;SDS011;43392;50.078;13.704;2022-07-19T02:14:50;7.07;;;3.10;;
56893;SDS011;43392;50.078;13.704;2022-07-19T02:17:16;6.80;;;3.13;;
56893;SDS011;43392;50.078;13.704;2022-07-19T02:19:43;9.25;;;2.40;;
56893;SDS011;43392;50.078;13.704;2022-07-19T02:22:10;5.18;;;2.38;;
56893;SDS011;43392;50.078;13.704;2022-07-19T02:24:36;6.93;;;2.50;;
56893;SDS011;43392;50.078;13.704;2022-07-19T02:27:03;5.75;;;2.15;;
56893;SDS011;43392;50.078;13.704;2022-07-19T02:29:30;10.30;;;2.50;;
56893;SDS011;43392;50.078;13.704;2022-07-19T02:31:58;7.28;;;2.28;;
56893;SDS011;43392;50.078;13.704;2022-07-19T02:34:24;5.05;;;2.50;;
56893;SDS011;43392;50.078;13.704;2022-07-19T02:36:51;6.43;;;2.40;;
56893;SDS011;43392;50.078;13.704;2022-07-19T02:39:17;6.28;;;2.33;;
56893;SDS011;43392;50.078;13.704;2022-07-19T02:41:44;4.78;;;2.42;;
56893;SDS011;43392;50.078;13.704;2022-07-19T02:44:11;7.20;;;2.10;;
56893;SDS011;43392;50.078;13.704;2022-07-19T02:46:37;4.97;;;2.25;;
56893;SDS011;43392;50.078;13.704;2022-07-19T02:49:05;8.48;;;2.45;;
56893;SDS011;43392;50.078;13.704;2022-07-19T02:51:32;5.70;;;2.33;;
56893;SDS011;43392;50.078;13.704;2022-07-19T02:53:58;6.47;;;3.03;;
56893;SDS011;43392;50.078;13.704;2022-07-19T02:56:25;7.63;;;3.42;;
56893;SDS011;43392;50.078;13.704;2022-07-19T02:58:54;14.70;;;4.32;;
56893;SDS011;43392;50.078;13.704;2022-07-19T03:01:21;8.43;;;3.40;;
56893;SDS011;43392;50.078;13.704;2022-07-19T03:03:47;8.45;;;3.63;;
56893;SDS011;43392;50.078;13.704;2022-07-19T03:06:17;8.70;;;3.67;;
56893;SDS011;43392;50.078;13.704;2022-07-19T03:08:44;7.50;;;3.33;;
56893;SDS011;43392;50.078;13.704;2022-07-19T03:11:11;8.23;;;3.58;;
56893;SDS011;43392;50.078;13.704;2022-07-19T03:13:38;9.77;;;3.90;;
56893;SDS011;43392;50.078;13.704;2022-07-19T03:16:05;9.35;;;3.53;;
56893;SDS011;43392;50.078;13.704;2022-07-19T03:18:32;7.93;;;3.88;;
56893;SDS011;43392;50.078;13.704;2022-07-19T03:20:59;9.35;;;3.92;;
56893;SDS011;43392;50.078;13.704;2022-07-19T03:23:27;10.43;;;4.50;;
56893;SDS011;43392;50.078;13.704;2022-07-19T03:25:57;11.93;;;3.92;;
56893;SDS011;43392;50.078;13.704;2022-07-19T03:28:24;10.00;;;3.88;;
56893;SDS011;43392;50.078;13.704;2022-07-19T03:30:51;8.35;;;4.03;;
56893;SDS011;43392;50.078;13.704;2022-07-19T03:33:18;7.80;;;3.53;;
56893;SDS011;43392;50.078;13.704;2022-07-19T03:35:44;8.38;;;3.40;;
56893;SDS011;43392;50.078;13.704;2022-07-19T03:38:12;7.97;;;3.50;;
56893;SDS011;43392;50.078;13.704;2022-07-19T03:40:41;9.38;;;2.90;;
56893;SDS011;43392;50.078;13.704;2022-07-19T03:43:08;7.30;;;2.53;;
56893;SDS011;43392;50.078;13.704;2022-07-19T03:45:35;7.05;;;2.63;;
56893;SDS011;43392;50.078;13.704;2022-07-19T03:48:02;7.43;;;2.40;;
56893;SDS011;43392;50.078;13.704;2022-07-19T03:50:28;9.38;;;3.65;;
56893;SDS011;43392;50.078;13.704;2022-07-19T03:52:55;8.85;;;3.67;;
56893;SDS011;43392;50.078;13.704;2022-07-19T03:55:21;8.50;;;3.53;;
56893;SDS011;43392;50.078;13.704;2022-07-19T03:57:50;9.02;;;3.47;;
56893;SDS011;43392;50.078;13.704;2022-07-19T04:00:16;6.72;;;3.10;;
56893;SDS011;43392;50.078;13.704;2022-07-19T04:02:43;7.82;;;2.88;;
56893;SDS011;43392;50.078;13.704;2022-07-19T04:05:09;9.25;;;2.75;;
56893;SDS011;43392;50.078;13.704;2022-07-19T04:07:36;9.05;;;3.28;;
56893;SDS011;43392;50.078;13.704;2022-07-19T04:10:03;7.38;;;3.33;;
56893;SDS011;43392;50.078;13.704;2022-07-19T04:12:31;6.43;;;3.40;;
56893;SDS011;43392;50.078;13.704;2022-07-19T04:14:58;8.32;;;3.15;;
56893;SDS011;43392;50.078;13.704;2022-07-19T04:17:25;13.00;;;3.72;;
56893;SDS011;43392;50.078;13.704;2022-07-19T04:19:52;6.88;;;3.28;;
56893;SDS011;43392;50.078;13.704;2022-07-19T04:22:19;8.00;;;3.10;;
56893;SDS011;43392;50.078;13.704;2022-07-19T04:24:48;7.20;;;3.25;;
56893;SDS011;43392;50.078;13.704;2022-07-19T04:27:15;6.93;;;2.90;;
56893;SDS011;43392;50.078;13.704;2022-07-19T04:29:42;8.80;;;3.30;;
56893;SDS011;43392;50.078;13.704;2022-07-19T04:32:09;7.50;;;3.10;;
56893;SDS011;43392;50.078;13.704;2022-07-19T04:34:36;7.10;;;3.30;;
56893;SDS011;43392;50.078;13.704;2022-07-19T04:37:03;10.20;;;3.63;;
56893;SDS011;43392;50.078;13.704;2022-07-19T04:39:30;8.15;;;4.20;;
56893;SDS011;43392;50.078;13.704;2022-07-19T04:41:57;8.82;;;3.90;;
56893;SDS011;43392;50.078;13.704;2022-07-19T04:44:23;9.90;;;4.20;;
56893;SDS011;43392;50.078;13.704;2022-07-19T04:46:50;6.95;;;3.50;;
56893;SDS011;43392;50.078;13.704;2022-07-19T04:49:18;7.40;;;3.70;;
56893;SDS011;43392;50.078;13.704;2022-07-19T04:51:44;9.20;;;3.60;;
56893;SDS011;43392;50.078;13.704;2022-07-19T04:54:11;9.07;;;4.18;;
56893;SDS011;43392;50.078;13.704;2022-07-19T04:56:37;9.55;;;4.35;;
56893;SDS011;43392;50.078;13.704;2022-07-19T04:59:04;10.98;;;3.90;;
56893;SDS011;43392;50.078;13.704;2022-07-19T05:01:31;12.20;;;4.43;;
56893;SDS011;43392;50.078;13.704;2022-07-19T05:03:59;7.90;;;3.47;;
56893;SDS011;43392;50.078;13.704;2022-07-19T05:06:27;7.90;;;3.72;;
56893;SDS011;43392;50.078;13.704;2022-07-19T05:08:54;10.18;;;3.97;;
56893;SDS011;43392;50.078;13.704;2022-07-19T05:11:21;7.97;;;4.03;;
56893;SDS011;43392;50.078;13.704;2022-07-19T05:13:48;7.53;;;4.10;;
56893;SDS011;43392;50.078;13.704;2022-07-19T05:16:15;11.70;;;3.88;;
56893;SDS011;43392;50.078;13.704;2022-07-19T05:18:41;11.27;;;4.68;;
56893;SDS011;43392;50.078;13.704;2022-07-19T05:21:08;10.07;;;4.32;;
56893;SDS011;43392;50.078;13.704;2022-07-19T05:23:36;10.48;;;4.80;;
56893;SDS011;43392;50.078;13.704;2022-07-19T05:26:03;17.10;;;6.07;;
56893;SDS011;43392;50.078;13.704;2022-07-19T05:28:29;14.20;;;6.40;;
56893;SDS011;43392;50.078;13.704;2022-07-19T05:30:56;14.57;;;6.47;;
56893;SDS011;43392;50.078;13.704;2022-07-19T05:33:23;18.40;;;7.20;;
56893;SDS011;43392;50.078;13.704;2022-07-19T05:35:49;14.40;;;6.65;;
56893;SDS011;43392;50.078;13.704;2022-07-19T05:38:16;13.20;;;6.18;;
56893;SDS011;43392;50.078;13.704;2022-07-19T05:40:44;13.25;;;5.82;;
56893;SDS011;43392;50.078;13.704;2022-07-19T05:43:11;12.43;;;5.22;;
56893;SDS011;43392;50.078;13.704;2022-07-19T05:45:37;13.63;;;4.60;;
56893;SDS011;43392;50.078;13.704;2022-07-19T05:48:04;14.65;;;5.63;;
56893;SDS011;43392;50.078;13.704;2022-07-19T05:50:31;14.05;;;5.90;;
56893;SDS011;43392;50.078;13.704;2022-07-19T05:52:57;14.65;;;4.97;;
56893;SDS011;43392;50.078;13.704;2022-07-19T05:55:24;11.45;;;4.53;;
56893;SDS011;43392;50.078;13.704;2022-07-19T05:57:52;9.15;;;4.13;;
56893;SDS011;43392;50.078;13.704;2022-07-19T06:00:19;10.88;;;3.70;;
56893;SDS011;43392;50.078;13.704;2022-07-19T06:02:45;8.55;;;3.65;;
56893;SDS011;43392;50.078;13.704;2022-07-19T06:05:12;8.65;;;2.90;;
56893;SDS011;43392;50.078;13.704;2022-07-19T06:07:38;7.95;;;3.20;;
56893;SDS011;43392;50.078;13.704;2022-07-19T06:10:05;6.88;;;3.13;;
56893;SDS011;43392;50.078;13.704;2022-07-19T06:12:33;7.07;;;2.88;;
56893;SDS011;43392;50.078;13.704;2022-07-19T06:15:01;5.05;;;2.40;;
56893;SDS011;43392;50.078;13.704;2022-07-19T06:17:27;6.55;;;2.60;;
56893;SDS011;43392;50.078;13.704;2022-07-19T06:19:54;6.05;;;2.42;;
56893;SDS011;43392;50.078;13.704;2022-07-19T06:22:21;5.22;;;2.20;;
56893;SDS011;43392;50.078;13.704;2022-07-19T06:24:47;7.50;;;2.58;;
56893;SDS011;43392;50.078;13.704;2022-07-19T06:27:14;8.77;;;2.60;;
56893;SDS011;43392;50.078;13.704;2022-07-19T06:29:41;8.15;;;2.70;;
56893;SDS011;43392;50.078;13.704;2022-07-19T06:32:09;5.82;;;2.70;;
56893;SDS011;43392;50.078;13.704;2022-07-19T06:34:36;7.75;;;2.70;;
56893;SDS011;43392;50.078;13.704;2022-07-19T06:37:02;7.05;;;2.95;;
56893;SDS011;43392;50.078;13.704;2022-07-19T06:39:29;6.03;;;2.60;;
56893;SDS011;43392;50.078;13.704;2022-07-19T06:41:56;6.70;;;3.00;;
56893;SDS011;43392;50.078;13.704;2022-07-19T06:44:22;7.55;;;2.85;;
56893;SDS011;43392;50.078;13.704;2022-07-19T06:46:49;8.13;;;2.50;;
56893;SDS011;43392;50.078;13.704;2022-07-19T06:49:17;7.20;;;2.50;;
56893;SDS011;43392;50.078;13.704;2022-07-19T06:51:43;10.05;;;3.17;;
56893;SDS011;43392;50.078;13.704;2022-07-19T06:54:10;5.55;;;2.47;;
56893;SDS011;43392;50.078;13.704;2022-07-19T06:56:37;7.50;;;2.83;;
56893;SDS011;43392;50.078;13.704;2022-07-19T06:59:04;10.80;;;3.13;;
56893;SDS011;43392;50.078;13.704;2022-07-19T07:01:30;9.32;;;2.63;;
56893;SDS011;43392;50.078;13.704;2022-07-19T07:03:57;6.05;;;2.40;;
56893;SDS011;43392;50.078;13.704;2022-07-19T07:06:25;5.90;;;2.35;;
56893;SDS011;43392;50.078;13.704;2022-07-19T07:08:52;6.32;;;2.45;;
56893;SDS011;43392;50.078;13.704;2022-07-19T07:11:18;6.60;;;2.20;;
56893;SDS011;43392;50.078;13.704;2022-07-19T07:13:45;6.72;;;2.35;;
56893;SDS011;43392;50.078;13.704;2022-07-19T07:16:11;4.88;;;2.28;;
56893;SDS011;43392;50.078;13.704;2022-07-19T07:18:38;7.18;;;2.40;;
56893;SDS011;43392;50.078;13.704;2022-07-19T07:21:04;7.85;;;2.25;;
56893;SDS011;43392;50.078;13.704;2022-07-19T07:23:33;7.03;;;2.38;;
56893;SDS011;43392;50.078;13.704;2022-07-19T07:25:59;4.32;;;2.10;;
56893;SDS011;43392;50.078;13.704;2022-07-19T07:28:26;6.47;;;2.55;;
56893;SDS011;43392;50.078;13.704;2022-07-19T07:30:53;6.25;;;2.38;;
56893;SDS011;43392;50.078;13.704;2022-07-19T07:33:19;6.97;;;2.10;;
56893;SDS011;43392;50.078;13.704;2022-07-19T07:35:46;7.18;;;2.20;;
56893;SDS011;43392;50.078;13.704;2022-07-19T07:38:14;5.45;;;2.00;;
56893;SDS011;43392;50.078;13.704;2022-07-19T07:40:42;4.45;;;2.00;;
56893;SDS011;43392;50.078;13.704;2022-07-19T07:43:09;7.68;;;2.42;;
56893;SDS011;43392;50.078;13.704;2022-07-19T07:45:36;6.45;;;2.40;;
56893;SDS011;43392;50.078;13.704;2022-07-19T07:48:02;6.38;;;2.40;;
56893;SDS011;43392;50.078;13.704;2022-07-19T07:50:29;4.13;;;2.30;;
56893;SDS011;43392;50.078;13.704;2022-07-19T07:52:56;6.20;;;2.47;;
56893;SDS011;43392;50.078;13.704;2022-07-19T07:55:22;7.95;;;2.60;;
56893;SDS011;43392;50.078;13.704;2022-07-19T07:57:50;10.93;;;2.75;;
56893;SDS011;43392;50.078;13.704;2022-07-19T08:00:17;6.15;;;2.45;;
56893;SDS011;43392;50.078;13.704;2022-07-19T08:02:44;7.15;;;2.70;;
56893;SDS011;43392;50.078;13.704;2022-07-19T08:05:14;9.15;;;3.15;;
56893;SDS011;43392;50.078;13.704;2022-07-19T08:07:40;8.25;;;2.85;;
56893;SDS011;43392;50.078;13.704;2022-07-19T08:10:08;7.35;;;2.60;;
56893;SDS011;43392;50.078;13.704;2022-07-19T08:12:35;9.68;;;2.28;;
56893;SDS011;43392;50.078;13.704;2022-07-19T08:15:04;7.15;;;2.72;;
56893;SDS011;43392;50.078;13.704;2022-07-19T08:17:31;6.70;;;2.55;;
56893;SDS011;43392;50.078;13.704;2022-07-19T08:19:58;5.00;;;2.30;;
56893;SDS011;43392;50.078;13.704;2022-07-19T08:22:25;5.60;;;2.10;;
56893;SDS011;43392;50.078;13.704;2022-07-19T08:24:53;6.28;;;2.45;;
56893;SDS011;43392;50.078;13.704;2022-07-19T08:27:20;11.65;;;2.50;;
56893;SDS011;43392;50.078;13.704;2022-07-19T08:29:46;6.15;;;2.20;;
56893;SDS011;43392;50.078;13.704;2022-07-19T08:32:14;6.13;;;2.13;;
56893;SDS011;43392;50.078;13.704;2022-07-19T08:34:41;5.05;;;1.95;;
56893;SDS011;43392;50.078;13.704;2022-07-19T08:37:07;6.93;;;2.38;;
56893;SDS011;43392;50.078;13.704;2022-07-19T08:39:34;3.95;;;2.03;;
56893;SDS011;43392;50.078;13.704;2022-07-19T08:42:01;5.07;;;2.00;;
56893;SDS011;43392;50.078;13.704;2022-07-19T08:44:28;6.72;;;2.50;;
56893;SDS011;43392;50.078;13.704;2022-07-19T08:46:55;5.70;;;2.33;;
56893;SDS011;43392;50.078;13.704;2022-07-19T08:49:23;4.78;;;2.17;;
56893;SDS011;43392;50.078;13.704;2022-07-19T08:51:50;5.60;;;2.10;;
56893;SDS011;43392;50.078;13.704;2022-07-19T08:54:18;7.13;;;2.35;;
56893;SDS011;43392;50.078;13.704;2022-07-19T08:56:44;5.22;;;2.20;;
56893;SDS011;43392;50.078;13.704;2022-07-19T08:59:28;7.47;;;2.20;;
56893;SDS011;43392;50.078;13.704;2022-07-19T09:01:56;5.32;;;2.00;;
56893;SDS011;43392;50.078;13.704;2022-07-19T09:04:24;4.97;;;2.00;;
56893;SDS011;43392;50.078;13.704;2022-07-19T09:06:53;3.65;;;2.00;;
56893;SDS011;43392;50.078;13.704;2022-07-19T09:09:22;6.53;;;2.33;;
56893;SDS011;43392;50.078;13.704;2022-07-19T09:11:52;5.07;;;2.15;;
56893;SDS011;43392;50.078;13.704;2022-07-19T09:14:21;4.47;;;2.10;;
56893;SDS011;43392;50.078;13.704;2022-07-19T09:16:54;5.35;;;2.30;;
56893;SDS011;43392;50.078;13.704;2022-07-19T09:19:28;5.70;;;1.88;;
56893;SDS011;43392;50.078;13.704;2022-07-19T09:24:24;7.18;;;2.10;;
56893;SDS011;43392;50.078;13.704;2022-07-19T09:26:56;6.28;;;2.05;;
56893;SDS011;43392;50.078;13.704;2022-07-19T09:29:24;6.88;;;2.38;;
56893;SDS011;43392;50.078;13.704;2022-07-19T09:32:04;5.72;;;2.03;;
56893;SDS011;43392;50.078;13.704;2022-07-19T09:34:34;5.25;;;2.15;;
56893;SDS011;43392;50.078;13.704;2022-07-19T09:37:10;5.05;;;1.80;;
56893;SDS011;43392;50.078;13.704;2022-07-19T09:39:42;6.28;;;2.03;;
56893;SDS011;43392;50.078;13.704;2022-07-19T09:42:11;4.63;;;2.30;;
56893;SDS011;43392;50.078;13.704;2022-07-19T09:44:39;5.63;;;1.80;;
56893;SDS011;43392;50.078;13.704;2022-07-19T09:47:05;5.18;;;2.00;;
56893;SDS011;43392;50.078;13.704;2022-07-19T09:49:34;8.35;;;2.22;;
56893;SDS011;43392;50.078;13.704;2022-07-19T09:52:00;4.38;;;2.08;;
56893;SDS011;43392;50.078;13.704;2022-07-19T09:54:28;5.93;;;1.90;;
56893;SDS011;43392;50.078;13.704;2022-07-19T09:56:57;5.95;;;2.10;;
56893;SDS011;43392;50.078;13.704;2022-07-19T09:59:25;4.35;;;2.30;;
56893;SDS011;43392;50.078;13.704;2022-07-19T10:01:53;4.20;;;1.88;;
56893;SDS011;43392;50.078;13.704;2022-07-19T10:04:21;4.85;;;2.15;;
56893;SDS011;43392;50.078;13.704;2022-07-19T10:06:50;6.15;;;1.67;;
56893;SDS011;43392;50.078;13.704;2022-07-19T10:09:18;4.28;;;1.83;;
56893;SDS011;43392;50.078;13.704;2022-07-19T10:11:46;6.00;;;1.85;;
56893;SDS011;43392;50.078;13.704;2022-07-19T10:14:12;7.80;;;2.10;;
56893;SDS011;43392;50.078;13.704;2022-07-19T10:16:49;6.63;;;2.40;;
56893;SDS011;43392;50.078;13.704;2022-07-19T10:19:26;4.32;;;1.95;;
56893;SDS011;43392;50.078;13.704;2022-07-19T10:22:00;4.50;;;1.90;;
56893;SDS011;43392;50.078;13.704;2022-07-19T10:24:44;4.22;;;1.80;;
56893;SDS011;43392;50.078;13.704;2022-07-19T10:27:16;5.10;;;2.10;;
56893;SDS011;43392;50.078;13.704;2022-07-19T10:32:51;7.50;;;1.95;;
56893;SDS011;43392;50.078;13.704;2022-07-19T10:35:20;6.15;;;2.08;;
56893;SDS011;43392;50.078;13.704;2022-07-19T10:37:49;4.15;;;1.60;;
56893;SDS011;43392;50.078;13.704;2022-07-19T10:40:36;4.73;;;2.00;;
56893;SDS011;43392;50.078;13.704;2022-07-19T10:43:07;3.47;;;1.67;;
56893;SDS011;43392;50.078;13.704;2022-07-19T10:45:35;4.47;;;1.85;;
56893;SDS011;43392;50.078;13.704;2022-07-19T10:48:03;3.15;;;1.58;;
56893;SDS011;43392;50.078;13.704;2022-07-19T10:56:35;5.35;;;1.58;;
56893;SDS011;43392;50.078;13.704;2022-07-19T10:59:03;3.38;;;1.90;;
56893;SDS011;43392;50.078;13.704;2022-07-19T11:01:32;5.65;;;2.08;;
56893;SDS011;43392;50.078;13.704;2022-07-19T11:06:50;5.43;;;1.77;;
56893;SDS011;43392;50.078;13.704;2022-07-19T11:09:18;4.88;;;1.60;;
56893;SDS011;43392;50.078;13.704;2022-07-19T11:11:45;3.80;;;1.58;;
56893;SDS011;43392;50.078;13.704;2022-07-19T11:14:11;4.05;;;1.75;;
56893;SDS011;43392;50.078;13.704;2022-07-19T11:16:38;5.07;;;1.83;;
56893;SDS011;43392;50.078;13.704;2022-07-19T11:19:07;3.45;;;1.60;;
56893;SDS011;43392;50.078;13.704;2022-07-19T11:21:35;2.40;;;1.50;;
56893;SDS011;43392;50.078;13.704;2022-07-19T11:24:03;3.30;;;1.55;;
56893;SDS011;43392;50.078;13.704;2022-07-19T11:26:35;5.45;;;2.10;;
56893;SDS011;43392;50.078;13.704;2022-07-19T11:29:03;3.35;;;1.55;;
56893;SDS011;43392;50.078;13.704;2022-07-19T11:31:30;4.82;;;1.63;;
56893;SDS011;43392;50.078;13.704;2022-07-19T11:33:58;5.60;;;2.45;;
56893;SDS011;43392;50.078;13.704;2022-07-19T11:36:25;4.72;;;1.80;;
56893;SDS011;43392;50.078;13.704;2022-07-19T11:38:53;4.03;;;1.80;;
56893;SDS011;43392;50.078;13.704;2022-07-19T11:41:22;4.72;;;2.03;;
56893;SDS011;43392;50.078;13.704;2022-07-19T11:43:52;5.68;;;1.80;;
56893;SDS011;43392;50.078;13.704;2022-07-19T11:46:20;3.30;;;1.77;;
56893;SDS011;43392;50.078;13.704;2022-07-19T11:48:47;6.70;;;2.03;;
56893;SDS011;43392;50.078;13.704;2022-07-19T11:51:14;3.03;;;1.80;;
56893;SDS011;43392;50.078;13.704;2022-07-19T11:53:41;4.72;;;1.75;;
56893;SDS011;43392;50.078;13.704;2022-07-19T11:56:16;4.97;;;2.15;;
56893;SDS011;43392;50.078;13.704;2022-07-19T11:58:44;5.75;;;1.90;;
56893;SDS011;43392;50.078;13.704;2022-07-19T12:01:12;4.53;;;1.98;;
56893;SDS011;43392;50.078;13.704;2022-07-19T12:03:39;5.43;;;1.67;;
56893;SDS011;43392;50.078;13.704;2022-07-19T12:06:07;4.55;;;1.65;;
56893;SDS011;43392;50.078;13.704;2022-07-19T12:08:35;5.18;;;1.80;;
56893;SDS011;43392;50.078;13.704;2022-07-19T12:11:17;4.90;;;2.00;;
56893;SDS011;43392;50.078;13.704;2022-07-19T12:13:45;7.03;;;2.00;;
56893;SDS011;43392;50.078;13.704;2022-07-19T12:16:13;3.95;;;1.73;;
56893;SDS011;43392;50.078;13.704;2022-07-19T12:18:44;4.30;;;2.13;;
56893;SDS011;43392;50.078;13.704;2022-07-19T12:21:17;6.43;;;2.10;;
56893;SDS011;43392;50.078;13.704;2022-07-19T12:27:00;5.07;;;2.10;;
56893;SDS011;43392;50.078;13.704;2022-07-19T12:29:30;5.10;;;2.00;;
56893;SDS011;43392;50.078;13.704;2022-07-19T12:32:02;4.25;;;1.90;;
56893;SDS011;43392;50.078;13.704;2022-07-19T12:37:17;6.38;;;2.28;;
56893;SDS011;43392;50.078;13.704;2022-07-19T12:39:54;3.35;;;1.85;;
56893;SDS011;43392;50.078;13.704;2022-07-19T12:42:22;7.22;;;2.45;;
56893;SDS011;43392;50.078;13.704;2022-07-19T12:44:48;7.82;;;2.20;;
56893;SDS011;43392;50.078;13.704;2022-07-19T12:47:16;7.28;;;2.20;;
56893;SDS011;43392;50.078;13.704;2022-07-19T12:49:44;6.65;;;2.10;;
56893;SDS011;43392;50.078;13.704;2022-07-19T12:52:11;3.60;;;1.60;;
56893;SDS011;43392;50.078;13.704;2022-07-19T12:54:38;5.28;;;1.90;;
56893;SDS011;43392;50.078;13.704;2022-07-19T12:57:05;4.40;;;1.90;;
56893;SDS011;43392;50.078;13.704;2022-07-19T12:59:31;5.13;;;2.10;;
56893;SDS011;43392;50.078;13.704;2022-07-19T13:02:07;6.72;;;2.30;;
56893;SDS011;43392;50.078;13.704;2022-07-19T13:04:37;4.63;;;2.05;;
56893;SDS011;43392;50.078;13.704;2022-07-19T13:07:04;5.05;;;2.17;;
56893;SDS011;43392;50.078;13.704;2022-07-19T13:09:31;3.75;;;1.80;;
56893;SDS011;43392;50.078;13.704;2022-07-19T13:11:59;4.13;;;2.13;;
56893;SDS011;43392;50.078;13.704;2022-07-19T13:14:25;7.38;;;2.20;;
56893;SDS011;43392;50.078;13.704;2022-07-19T13:16:52;7.03;;;1.90;;
56893;SDS011;43392;50.078;13.704;2022-07-19T13:19:19;6.20;;;2.08;;
56893;SDS011;43392;50.078;13.704;2022-07-19T13:21:47;9.35;;;2.10;;
56893;SDS011;43392;50.078;13.704;2022-07-19T13:24:13;5.13;;;2.20;;
56893;SDS011;43392;50.078;13.704;2022-07-19T13:26:40;7.35;;;2.33;;
56893;SDS011;43392;50.078;13.704;2022-07-19T13:29:07;6.15;;;2.20;;
56893;SDS011;43392;50.078;13.704;2022-07-19T13:31:33;9.02;;;2.10;;
56893;SDS011;43392;50.078;13.704;2022-07-19T13:34:01;5.78;;;1.83;;
56893;SDS011;43392;50.078;13.704;2022-07-19T13:36:28;4.57;;;2.10;;
56893;SDS011;43392;50.078;13.704;2022-07-19T13:38:56;6.28;;;2.00;;
56893;SDS011;43392;50.078;13.704;2022-07-19T13:41:23;7.85;;;2.30;;
56893;SDS011;43392;50.078;13.704;2022-07-19T13:43:49;3.70;;;1.80;;
56893;SDS011;43392;50.078;13.704;2022-07-19T13:46:18;6.00;;;1.80;;
56893;SDS011;43392;50.078;13.704;2022-07-19T13:48:45;3.47;;;1.75;;
56893;SDS011;43392;50.078;13.704;2022-07-19T13:51:11;3.25;;;1.73;;
56893;SDS011;43392;50.078;13.704;2022-07-19T13:53:38;3.25;;;1.70;;
56893;SDS011;43392;50.078;13.704;2022-07-19T13:56:06;3.20;;;1.80;;
56893;SDS011;43392;50.078;13.704;2022-07-19T13:58:33;4.85;;;1.70;;
56893;SDS011;43392;50.078;13.704;2022-07-19T14:01:00;3.42;;;1.90;;
56893;SDS011;43392;50.078;13.704;2022-07-19T14:03:26;5.38;;;2.05;;
56893;SDS011;43392;50.078;13.704;2022-07-19T14:05:53;3.67;;;1.90;;
56893;SDS011;43392;50.078;13.704;2022-07-19T14:08:20;6.88;;;1.90;;
56893;SDS011;43392;50.078;13.704;2022-07-19T14:10:47;6.15;;;1.90;;
56893;SDS011;43392;50.078;13.704;2022-07-19T14:13:15;6.03;;;1.83;;
56893;SDS011;43392;50.078;13.704;2022-07-19T14:15:42;3.50;;;1.73;;
56893;SDS011;43392;50.078;13.704;2022-07-19T14:18:09;3.47;;;1.58;;
56893;SDS011;43392;50.078;13.704;2022-07-19T14:20:36;5.93;;;1.80;;
56893;SDS011;43392;50.078;13.704;2022-07-19T14:23:05;5.18;;;1.40;;
56893;SDS011;43392;50.078;13.704;2022-07-19T14:25:32;5.68;;;1.80;;
56893;SDS011;43392;50.078;13.704;2022-07-19T14:27:58;4.15;;;1.63;;
56893;SDS011;43392;50.078;13.704;2022-07-19T14:30:26;3.55;;;1.65;;
56893;SDS011;43392;50.078;13.704;2022-07-19T14:32:53;6.78;;;1.92;;
56893;SDS011;43392;50.078;13.704;2022-07-19T14:35:20;5.72;;;2.00;;
56893;SDS011;43392;50.078;13.704;2022-07-19T14:37:46;5.38;;;1.80;;
56893;SDS011;43392;50.078;13.704;2022-07-19T14:40:13;6.25;;;2.15;;
56893;SDS011;43392;50.078;13.704;2022-07-19T14:42:40;6.00;;;1.83;;
56893;SDS011;43392;50.078;13.704;2022-07-19T14:45:07;6.03;;;1.90;;
56893;SDS011;43392;50.078;13.704;2022-07-19T14:47:36;7.20;;;2.10;;
56893;SDS011;43392;50.078;13.704;2022-07-19T14:50:04;5.95;;;2.00;;
56893;SDS011;43392;50.078;13.704;2022-07-19T14:52:33;4.50;;;1.80;;
56893;SDS011;43392;50.078;13.704;2022-07-19T14:54:59;4.82;;;1.92;;
56893;SDS011;43392;50.078;13.704;2022-07-19T14:57:26;6.20;;;2.00;;